createdAt,value
2023-01-29T00:02:50.053Z,64.98
2023-01-29T00:05:52.296Z,64.88
2023-01-29T00:08:54.603Z,64.82
2023-01-29T00:11:57.237Z,65.36
2023-01-29T00:14:59.338Z,64.26
2023-01-29T00:18:02.520Z,64.63
2023-01-29T00:21:09.267Z,65.07
2023-01-29T00:24:11.852Z,65.17
2023-01-29T00:27:14.077Z,65.06
2023-01-29T00:30:20.108Z,64.85
2023-01-29T00:33:23.336Z,64.47
2023-01-29T00:36:26.739Z,65.15
2023-01-29T00:39:47.564Z,64.90
2023-01-29T00:43:09.055Z,64.70
2023-01-29T00:46:11.585Z,64.92
2023-01-29T00:49:13.826Z,65.09
2023-01-29T00:52:25.407Z,64.59
2023-01-29T00:55:27.645Z,65.17
2023-01-29T00:58:34.693Z,64.89
2023-01-29T01:01:55.707Z,65.13
2023-01-29T01:04:57.777Z,64.62
2023-01-29T01:07:59.932Z,64.62
2023-01-29T01:11:05.553Z,64.62
2023-01-29T01:14:08.155Z,64.05
2023-01-29T01:17:10.246Z,64.30
2023-01-29T01:20:13.519Z,64.27
2023-01-29T01:23:15.805Z,64.11
2023-01-29T01:26:19.008Z,65.06
2023-01-29T01:29:21.198Z,65.61
2023-01-29T01:32:23.295Z,65.05
2023-01-29T01:35:25.302Z,65.21
2023-01-29T01:38:27.643Z,64.89
2023-01-29T01:41:30.820Z,64.72
2023-01-29T01:45:18.683Z,65.02
2023-01-29T01:48:26.955Z,64.49
2023-01-29T01:51:32.949Z,64.58
2023-01-29T01:54:35.104Z,64.17
2023-01-29T01:57:37.289Z,64.45
2023-01-29T02:00:40.158Z,64.44
2023-01-29T02:04:06.674Z,65.03
2023-01-29T02:07:33.145Z,65.13
2023-01-29T02:10:46.914Z,66.50
2023-01-29T02:13:53.906Z,66.20
2023-01-29T02:17:01.873Z,66.36
2023-01-29T02:20:17.983Z,66.15
2023-01-29T02:23:38.271Z,65.32
2023-01-29T02:26:50.948Z,65.18
2023-01-29T02:30:09.367Z,66.05
2023-01-29T02:33:39.553Z,65.42
2023-01-29T02:36:49.259Z,65.56
2023-01-29T02:40:00.983Z,64.98
2023-01-29T02:43:11.858Z,65.05
2023-01-29T02:46:35.394Z,65.93
2023-01-29T02:50:07.629Z,65.96
2023-01-29T02:53:16.763Z,64.76
2023-01-29T02:56:25.821Z,65.87
2023-01-29T02:59:37.340Z,65.05
2023-01-29T03:02:54.562Z,65.13
2023-01-29T03:06:07.951Z,65.77
2023-01-29T03:09:16.719Z,65.70
2023-01-29T03:12:34.241Z,65.08
2023-01-29T03:15:47.598Z,65.85
2023-01-29T03:19:07.292Z,65.80
2023-01-29T03:22:11.574Z,65.36
2023-01-29T03:25:34.409Z,65.02
2023-01-29T03:28:55.919Z,65.64
2023-01-29T03:32:05.605Z,66.14
2023-01-29T03:35:11.506Z,65.48
2023-01-29T03:38:13.869Z,65.24
2023-01-29T03:41:22.536Z,64.94
2023-01-29T03:44:44.024Z,65.37
2023-01-29T03:48:16.656Z,64.93
2023-01-29T03:51:24.412Z,65.51
2023-01-29T03:54:49.620Z,64.79
2023-01-29T03:58:30.925Z,65.81
2023-01-29T04:01:42.991Z,65.37
2023-01-29T04:04:52.209Z,64.86
2023-01-29T04:08:03.228Z,65.58
2023-01-29T04:11:12.114Z,65.17
2023-01-29T04:14:15.175Z,65.46
2023-01-29T04:17:40.900Z,64.61
2023-01-29T04:20:55.189Z,64.89
2023-01-29T04:23:57.503Z,65.42
2023-01-29T04:27:28.366Z,64.41
2023-01-29T04:30:55.330Z,64.80
2023-01-29T04:34:25.867Z,65.05
2023-01-29T04:37:40.348Z,64.08
2023-01-29T04:41:12.239Z,64.89
2023-01-29T04:44:21.037Z,64.54
2023-01-29T04:47:45.050Z,65.15
2023-01-29T04:50:59.342Z,64.72
2023-01-29T04:54:16.599Z,64.58
2023-01-29T04:57:33.708Z,64.84
2023-01-29T05:00:43.252Z,64.62
2023-01-29T05:03:50.263Z,64.75
2023-01-29T05:06:53.485Z,64.51
2023-01-29T05:09:57.109Z,64.87
2023-01-29T05:13:03.385Z,64.61
2023-01-29T05:16:13.812Z,64.91
2023-01-29T05:19:17.017Z,64.62
2023-01-29T05:22:22.862Z,63.72
2023-01-29T05:25:28.894Z,63.53
2023-01-29T05:28:31.213Z,63.88
2023-01-29T05:31:33.519Z,63.96
2023-01-29T05:34:35.792Z,64.55
2023-01-29T05:37:37.886Z,64.46
2023-01-29T05:40:40.154Z,64.29
2023-01-29T05:43:42.169Z,64.31
2023-01-29T05:46:45.229Z,63.92
2023-01-29T05:49:47.467Z,63.64
2023-01-29T05:52:49.525Z,64.24
2023-01-29T05:55:51.898Z,64.42
2023-01-29T05:58:53.980Z,63.78
2023-01-29T06:01:56.463Z,64.14
2023-01-29T06:04:58.493Z,63.40
2023-01-29T06:08:00.655Z,63.94
2023-01-29T06:11:03.427Z,64.10
2023-01-29T06:14:05.587Z,64.44
2023-01-29T06:17:08.106Z,63.59
2023-01-29T06:20:10.874Z,64.21
2023-01-29T06:23:13.010Z,63.55
2023-01-29T06:26:16.390Z,63.90
2023-01-29T06:29:18.540Z,63.35
2023-01-29T06:32:20.716Z,63.52
2023-01-29T06:35:22.934Z,63.32
2023-01-29T06:38:26.680Z,63.84
2023-01-29T06:41:28.821Z,63.17
2023-01-29T06:44:30.835Z,63.20
2023-01-29T06:47:33.041Z,63.30
2023-01-29T06:50:35.050Z,64.11
2023-01-29T06:53:38.559Z,63.82
2023-01-29T06:56:40.854Z,63.33
2023-01-29T06:59:45.425Z,63.54
2023-01-29T07:02:50.399Z,63.69
2023-01-29T07:05:53.168Z,63.20
2023-01-29T07:08:55.958Z,64.03
2023-01-29T07:11:57.905Z,63.49
2023-01-29T07:15:00.196Z,63.29
2023-01-29T07:18:12.052Z,63.14
2023-01-29T07:21:14.159Z,63.80
2023-01-29T07:24:16.606Z,63.18
2023-01-29T07:27:18.709Z,63.00
2023-01-29T07:30:21.723Z,63.20
2023-01-29T07:33:24.100Z,62.96
2023-01-29T07:36:27.498Z,63.30
2023-01-29T07:39:29.549Z,62.70
2023-01-29T07:42:34.791Z,63.13
2023-01-29T07:45:38.968Z,62.50
2023-01-29T07:48:41.082Z,61.96
2023-01-29T07:51:43.098Z,63.29
2023-01-29T07:54:45.179Z,63.38
2023-01-29T07:57:47.738Z,62.79
2023-01-29T08:00:49.986Z,63.24
2023-01-29T08:04:02.031Z,62.71
2023-01-29T08:07:07.269Z,62.99
2023-01-29T08:10:09.968Z,62.83
2023-01-29T08:13:12.265Z,63.42
2023-01-29T08:16:14.713Z,62.37
2023-01-29T08:19:16.828Z,62.05
2023-01-29T08:22:18.892Z,61.85
2023-01-29T08:25:22.712Z,61.64
2023-01-29T08:28:25.152Z,61.92
2023-01-29T08:31:27.430Z,61.79
2023-01-29T08:34:29.548Z,62.18
2023-01-29T08:37:31.766Z,61.61
2023-01-29T08:40:35.209Z,61.37
2023-01-29T08:43:37.391Z,61.68
2023-01-29T08:46:40.945Z,61.46
2023-01-29T08:49:43.035Z,62.36
2023-01-29T08:52:45.729Z,61.92
2023-01-29T08:55:49.076Z,61.89
2023-01-29T08:58:52.023Z,62.36
2023-01-29T09:01:54.139Z,62.35
2023-01-29T09:04:56.582Z,62.23
2023-01-29T09:08:01.969Z,62.21
2023-01-29T09:11:05.686Z,62.17
2023-01-29T09:14:07.785Z,62.76
2023-01-29T09:17:09.818Z,62.50
2023-01-29T09:20:12.162Z,62.47
2023-01-29T09:23:14.297Z,61.41
2023-01-29T09:26:16.350Z,62.15
2023-01-29T09:29:20.911Z,61.96
2023-01-29T09:32:51.600Z,61.35
2023-01-29T09:35:49.129Z,61.48
2023-01-29T09:38:51.857Z,61.30
2023-01-29T09:42:19.087Z,61.74
2023-01-29T09:45:29.035Z,62.43
2023-01-29T09:48:34.586Z,62.40
2023-01-29T09:51:46.970Z,62.26
2023-01-29T09:55:22.765Z,62.20
2023-01-29T09:58:40.073Z,61.96
2023-01-29T10:02:27.812Z,62.94
2023-01-29T10:05:45.930Z,61.07
2023-01-29T10:09:25.524Z,61.49
2023-01-29T10:12:37.118Z,62.11
2023-01-29T10:15:50.123Z,61.97
2023-01-29T10:19:36.997Z,61.40
2023-01-29T10:22:55.467Z,62.05
2023-01-29T10:25:58.014Z,62.09
2023-01-29T10:29:07.265Z,61.63
2023-01-29T10:32:20.571Z,61.40
2023-01-29T10:35:32.219Z,61.32
2023-01-29T10:38:37.848Z,62.49
2023-01-29T10:42:17.958Z,61.19
2023-01-29T10:45:54.586Z,61.84
2023-01-29T10:49:11.569Z,61.76
2023-01-29T10:52:52.329Z,62.12
2023-01-29T10:56:22.643Z,61.58
2023-01-29T10:59:43.203Z,61.66
2023-01-29T11:02:50.835Z,61.24
2023-01-29T11:06:28.780Z,60.97
2023-01-29T11:09:37.263Z,61.82
2023-01-29T11:12:39.680Z,62.15
2023-01-29T11:15:41.818Z,61.31
2023-01-29T11:19:16.620Z,61.47
2023-01-29T11:22:21.615Z,61.37
2023-01-29T11:25:24.140Z,61.21
2023-01-29T11:28:39.488Z,60.41
2023-01-29T11:31:41.830Z,60.23
2023-01-29T11:35:03.349Z,61.84
2023-01-29T11:38:27.372Z,62.37
2023-01-29T11:41:29.407Z,61.73
2023-01-29T11:44:31.429Z,62.00
2023-01-29T11:47:34.076Z,61.28
2023-01-29T11:50:36.190Z,61.60
2023-01-29T11:53:45.246Z,62.21
2023-01-29T11:56:48.292Z,62.17
2023-01-29T11:59:52.699Z,61.51
2023-01-29T12:02:57.004Z,61.24
2023-01-29T12:06:03.905Z,61.48
2023-01-29T12:09:16.090Z,62.29
2023-01-29T12:12:42.390Z,61.08
2023-01-29T12:15:44.932Z,61.04
2023-01-29T12:18:53.388Z,61.55
2023-01-29T12:22:03.032Z,61.61
2023-01-29T12:25:50.666Z,61.11
2023-01-29T12:29:22.420Z,61.92
2023-01-29T12:32:41.212Z,61.54
2023-01-29T12:35:57.754Z,61.40
2023-01-29T12:39:02.065Z,62.21
2023-01-29T12:42:31.073Z,61.27
2023-01-29T12:45:35.174Z,61.89
2023-01-29T12:48:40.164Z,62.12
2023-01-29T12:51:58.944Z,62.19
2023-01-29T12:55:06.701Z,61.74
2023-01-29T12:58:12.225Z,62.20
2023-01-29T13:01:26.194Z,62.57
2023-01-29T13:04:34.463Z,62.92
2023-01-29T13:07:46.578Z,62.06
2023-01-29T13:10:54.165Z,63.01
2023-01-29T13:14:13.661Z,61.95
2023-01-29T13:17:34.321Z,62.48
2023-01-29T13:20:39.195Z,62.92
2023-01-29T13:23:48.621Z,62.71
2023-01-29T13:26:51.700Z,63.17
2023-01-29T13:29:55.503Z,62.78
2023-01-29T13:33:11.377Z,63.14
2023-01-29T13:36:26.384Z,62.66
2023-01-29T13:39:35.080Z,62.91
2023-01-29T13:42:45.680Z,62.53
2023-01-29T13:45:49.363Z,63.09
2023-01-29T13:48:54.715Z,63.68
2023-01-29T13:51:57.869Z,62.98
2023-01-29T13:55:15.074Z,63.72
2023-01-29T13:58:42.311Z,63.17
2023-01-29T14:01:53.238Z,62.90
2023-01-29T14:05:29.194Z,63.66
2023-01-29T14:08:45.255Z,63.51
2023-01-29T14:11:51.362Z,62.79
2023-01-29T14:14:56.851Z,62.55
2023-01-29T14:18:14.022Z,62.67
2023-01-29T14:21:28.526Z,63.23
2023-01-29T14:24:31.382Z,62.49
2023-01-29T14:27:36.107Z,62.98
2023-01-29T14:30:40.556Z,62.92
2023-01-29T14:33:43.605Z,62.98
2023-01-29T14:36:50.551Z,62.75
2023-01-29T14:39:57.815Z,62.98
2023-01-29T14:43:27.226Z,62.82
2023-01-29T14:46:35.654Z,63.64
2023-01-29T14:49:58.309Z,63.40
2023-01-29T14:53:30.298Z,63.55
2023-01-29T14:56:41.060Z,63.57
2023-01-29T15:00:05.609Z,63.86
2023-01-29T15:03:33.940Z,64.34
2023-01-29T15:06:48.369Z,63.55
2023-01-29T15:10:13.501Z,64.33
2023-01-29T15:13:42.418Z,63.30
2023-01-29T15:17:05.576Z,63.61
2023-01-29T15:20:27.407Z,63.84
2023-01-29T15:23:32.079Z,63.77
2023-01-29T15:26:36.125Z,63.82
2023-01-29T15:29:38.968Z,64.26
2023-01-29T15:32:41.345Z,63.26
2023-01-29T15:35:43.641Z,63.52
2023-01-29T15:38:45.821Z,63.82
2023-01-29T15:41:48.574Z,63.58
2023-01-29T15:44:50.701Z,64.39
2023-01-29T15:47:55.652Z,64.12
2023-01-29T15:50:58.829Z,64.14
2023-01-29T15:54:03.895Z,64.33
2023-01-29T15:57:06.628Z,64.54
2023-01-29T16:00:22.328Z,64.28
2023-01-29T16:03:29.251Z,63.73
2023-01-29T16:06:38.188Z,63.90
2023-01-29T16:09:40.641Z,63.57
2023-01-29T16:12:43.227Z,63.80
2023-01-29T16:15:59.466Z,63.76
2023-01-29T16:19:01.708Z,64.56
2023-01-29T16:22:06.653Z,64.29
2023-01-29T16:25:14.588Z,64.25
2023-01-29T16:28:17.843Z,63.86
2023-01-29T16:31:28.778Z,64.14
2023-01-29T16:34:38.400Z,63.57
2023-01-29T16:37:40.521Z,64.22
2023-01-29T16:41:07.480Z,63.85
2023-01-29T16:44:21.588Z,63.59
2023-01-29T16:47:28.388Z,64.72
2023-01-29T16:50:38.287Z,64.26
2023-01-29T16:54:02.686Z,64.86
2023-01-29T16:57:04.537Z,64.93
2023-01-29T17:00:15.531Z,65.32
2023-01-29T17:03:18.989Z,64.45
2023-01-29T17:06:27.607Z,64.07
2023-01-29T17:09:35.200Z,64.51
2023-01-29T17:12:38.922Z,64.59
2023-01-29T17:15:49.913Z,64.32
2023-01-29T17:18:52.528Z,64.03
2023-01-29T17:21:57.234Z,64.16
2023-01-29T17:24:59.495Z,64.51
2023-01-29T17:28:04.108Z,64.40
2023-01-29T17:31:09.555Z,64.21
2023-01-29T17:34:16.060Z,64.68
2023-01-29T17:37:18.285Z,63.95
2023-01-29T17:40:29.994Z,63.75
2023-01-29T17:43:32.265Z,63.92
2023-01-29T17:46:34.289Z,64.63
2023-01-29T17:49:37.933Z,64.50
2023-01-29T17:52:40.018Z,64.73
2023-01-29T17:55:42.674Z,64.43
2023-01-29T17:58:48.169Z,64.99
2023-01-29T18:01:51.294Z,64.72
2023-01-29T18:04:53.414Z,64.95
2023-01-29T18:07:55.680Z,64.55
2023-01-29T18:10:57.861Z,65.25
2023-01-29T18:14:01.291Z,65.28
2023-01-29T18:17:11.435Z,64.99
2023-01-29T18:20:25.696Z,64.69
2023-01-29T18:23:29.696Z,64.86
2023-01-29T18:26:33.997Z,64.47
2023-01-29T18:29:36.038Z,63.89
2023-01-29T18:32:38.509Z,64.31
2023-01-29T18:35:40.493Z,64.55
2023-01-29T18:38:42.622Z,64.74
2023-01-29T18:41:45.102Z,63.65
2023-01-29T18:44:47.392Z,63.76
2023-01-29T18:47:51.090Z,63.82
2023-01-29T18:50:53.249Z,64.48
2023-01-29T18:53:55.287Z,64.63
2023-01-29T18:57:13.248Z,63.98
2023-01-29T19:00:17.674Z,64.57
2023-01-29T19:03:19.869Z,65.01
2023-01-29T19:06:22.097Z,63.96
2023-01-29T19:09:26.348Z,64.17
2023-01-29T19:12:28.804Z,64.20
2023-01-29T19:15:30.882Z,64.01
2023-01-29T19:18:32.988Z,64.34
2023-01-29T19:21:38.732Z,64.27
2023-01-29T19:24:41.102Z,64.56
2023-01-29T19:27:43.374Z,64.58
2023-01-29T19:30:46.033Z,63.90
2023-01-29T19:33:48.940Z,63.79
2023-01-29T19:36:51.013Z,63.67
2023-01-29T19:39:53.967Z,63.29
2023-01-29T19:42:56.610Z,64.26
2023-01-29T19:46:00.918Z,63.81
2023-01-29T19:49:03.738Z,64.31
2023-01-29T19:52:07.571Z,64.28
2023-01-29T19:55:11.307Z,63.68
2023-01-29T19:58:14.052Z,63.56
2023-01-29T20:01:21.393Z,64.22
2023-01-29T20:04:23.632Z,63.70
2023-01-29T20:07:26.614Z,63.77
2023-01-29T20:10:28.751Z,63.84
2023-01-29T20:13:31.025Z,62.98
2023-01-29T20:16:33.145Z,63.21
2023-01-29T20:19:35.248Z,64.36
2023-01-29T20:22:38.416Z,64.26
2023-01-29T20:25:42.059Z,63.92
2023-01-29T20:28:48.328Z,63.82
2023-01-29T20:31:50.491Z,63.08
2023-01-29T20:34:52.558Z,63.54
2023-01-29T20:37:54.504Z,63.90
2023-01-29T20:41:04.573Z,63.50
2023-01-29T20:44:08.613Z,63.13
2023-01-29T20:47:10.734Z,63.46
2023-01-29T20:50:16.345Z,62.98
2023-01-29T20:53:18.755Z,64.23
2023-01-29T20:56:36.253Z,64.06
2023-01-29T20:59:45.336Z,63.04
2023-01-29T21:02:48.820Z,63.69
2023-01-29T21:05:53.570Z,64.21
2023-01-29T21:08:56.034Z,63.63
2023-01-29T21:11:59.406Z,64.18
2023-01-29T21:15:04.822Z,63.79
2023-01-29T21:18:07.092Z,64.39
2023-01-29T21:21:09.331Z,63.73
2023-01-29T21:24:13.124Z,63.41
2023-01-29T21:27:15.232Z,63.59
2023-01-29T21:30:19.879Z,63.82
2023-01-29T21:33:22.152Z,63.31
2023-01-29T21:36:32.662Z,63.26
2023-01-29T21:39:35.661Z,63.55
2023-01-29T21:42:58.019Z,62.68
2023-01-29T21:46:12.155Z,63.77
2023-01-29T21:49:16.663Z,63.86
2023-01-29T21:52:18.708Z,63.38
2023-01-29T21:55:20.756Z,63.31
2023-01-29T21:58:24.958Z,64.20
2023-01-29T22:01:37.656Z,63.93
2023-01-29T22:04:42.763Z,63.49
2023-01-29T22:07:48.216Z,63.62
2023-01-29T22:10:53.176Z,63.99
2023-01-29T22:13:58.353Z,64.10
2023-01-29T22:17:02.463Z,64.09
2023-01-29T22:20:05.990Z,63.82
2023-01-29T22:23:08.467Z,64.15
2023-01-29T22:26:15.271Z,63.59
2023-01-29T22:29:18.416Z,63.94
2023-01-29T22:32:20.673Z,63.55
2023-01-29T22:35:25.851Z,63.70
2023-01-29T22:38:31.638Z,63.89
2023-01-29T22:41:36.854Z,63.47
2023-01-29T22:44:41.821Z,63.52
2023-01-29T22:47:44.905Z,64.15
2023-01-29T22:50:53.077Z,63.84
2023-01-29T22:54:03.480Z,63.40
2023-01-29T22:57:10.242Z,63.49
2023-01-29T23:00:16.849Z,63.97
2023-01-29T23:03:19.256Z,63.89
2023-01-29T23:06:22.986Z,64.02
2023-01-29T23:09:26.706Z,63.88
2023-01-29T23:12:29.495Z,63.76
2023-01-29T23:15:31.566Z,63.23
2023-01-29T23:18:33.843Z,64.13
2023-01-29T23:21:36.022Z,63.77
2023-01-29T23:24:38.736Z,63.63
2023-01-29T23:27:41.239Z,63.96
2023-01-29T23:30:45.449Z,64.13
2023-01-29T23:33:51.089Z,63.33
2023-01-29T23:36:54.081Z,64.28
2023-01-29T23:39:56.066Z,63.49
2023-01-29T23:42:58.221Z,63.58
2023-01-29T23:46:01.951Z,63.48
2023-01-29T23:49:05.580Z,63.21
2023-01-29T23:52:11.373Z,64.07
2023-01-29T23:55:13.714Z,63.89
2023-01-29T23:58:15.675Z,63.73
